sensor_id;sensor_type;location;lat;lon;timestamp;pressure;altitude;pressure_sealevel;temperature;humidity
43804;BME280;29430;52.924;-2.388;2024-03-07T00:01:13;99908.19;;;4.69;100.00
43804;BME280;29430;52.924;-2.388;2024-03-07T00:06:04;99904.84;;;4.66;100.00
43804;BME280;29430;52.924;-2.388;2024-03-07T00:10:56;99905.84;;;4.65;100.00
43804;BME280;29430;52.924;-2.388;2024-03-07T00:15:48;99904.16;;;4.64;100.00
43804;BME280;29430;52.924;-2.388;2024-03-07T00:20:40;99909.06;;;4.61;100.00
43804;BME280;29430;52.924;-2.388;2024-03-07T00:25:31;99901.00;;;4.61;100.00
43804;BME280;29430;52.924;-2.388;2024-03-07T00:30:23;99906.38;;;4.61;100.00
43804;BME280;29430;52.924;-2.388;2024-03-07T00:35:15;99905.72;;;4.59;100.00
43804;BME280;29430;52.924;-2.388;2024-03-07T00:40:07;99912.28;;;4.56;100.00
43804;BME280;29430;52.924;-2.388;2024-03-07T00:44:59;99911.44;;;4.56;100.00
43804;BME280;29430;52.924;-2.388;2024-03-07T00:49:51;99902.06;;;4.52;100.00
43804;BME280;29430;52.924;-2.388;2024-03-07T00:54:43;99916.47;;;4.51;100.00
43804;BME280;29430;52.924;-2.388;2024-03-07T00:59:34;99917.69;;;4.48;100.00
43804;BME280;29430;52.924;-2.388;2024-03-07T01:04:26;99904.59;;;4.45;100.00
43804;BME280;29430;52.924;-2.388;2024-03-07T01:09:22;99900.56;;;4.41;100.00
43804;BME280;29430;52.924;-2.388;2024-03-07T01:14:14;99905.94;;;4.41;100.00
43804;BME280;29430;52.924;-2.388;2024-03-07T01:19:07;99902.25;;;4.34;100.00
43804;BME280;29430;52.924;-2.388;2024-03-07T01:24:01;99908.50;;;4.34;100.00
43804;BME280;29430;52.924;-2.388;2024-03-07T01:28:53;99903.66;;;4.29;100.00
43804;BME280;29430;52.924;-2.388;2024-03-07T01:33:46;99909.00;;;4.29;100.00
43804;BME280;29430;52.924;-2.388;2024-03-07T01:38:38;99902.66;;;4.22;100.00
43804;BME280;29430;52.924;-2.388;2024-03-07T01:43:29;99908.19;;;4.21;100.00
43804;BME280;29430;52.924;-2.388;2024-03-07T01:48:26;99906.66;;;4.18;100.00
43804;BME280;29430;52.924;-2.388;2024-03-07T01:53:18;99889.56;;;4.19;100.00
43804;BME280;29430;52.924;-2.388;2024-03-07T01:58:13;99888.91;;;4.17;100.00
43804;BME280;29430;52.924;-2.388;2024-03-07T02:03:09;99891.44;;;4.19;100.00
43804;BME280;29430;52.924;-2.388;2024-03-07T02:08:01;99887.22;;;4.16;100.00
43804;BME280;29430;52.924;-2.388;2024-03-07T02:12:53;99889.09;;;4.16;100.00
43804;BME280;29430;52.924;-2.388;2024-03-07T02:17:45;99885.38;;;4.17;100.00
43804;BME280;29430;52.924;-2.388;2024-03-07T02:22:37;99885.53;;;4.15;100.00
43804;BME280;29430;52.924;-2.388;2024-03-07T02:27:29;99884.88;;;4.13;100.00
43804;BME280;29430;52.924;-2.388;2024-03-07T02:32:21;99882.53;;;4.10;100.00
43804;BME280;29430;52.924;-2.388;2024-03-07T02:37:12;99892.63;;;4.08;100.00
43804;BME280;29430;52.924;-2.388;2024-03-07T02:42:05;99882.88;;;4.07;100.00
43804;BME280;29430;52.924;-2.388;2024-03-07T02:46:58;99891.28;;;4.04;100.00
43804;BME280;29430;52.924;-2.388;2024-03-07T02:51:49;99893.31;;;4.02;100.00
43804;BME280;29430;52.924;-2.388;2024-03-07T02:56:41;99874.69;;;4.00;100.00
43804;BME280;29430;52.924;-2.388;2024-03-07T03:01:33;99881.88;;;4.00;100.00
43804;BME280;29430;52.924;-2.388;2024-03-07T03:06:25;99881.88;;;4.00;100.00
43804;BME280;29430;52.924;-2.388;2024-03-07T03:11:16;99880.53;;;4.04;100.00
43804;BME280;29430;52.924;-2.388;2024-03-07T03:16:09;99874.34;;;4.03;100.00
43804;BME280;29430;52.924;-2.388;2024-03-07T03:21:02;99877.69;;;4.05;100.00
43804;BME280;29430;52.924;-2.388;2024-03-07T03:25:54;99874.84;;;4.07;100.00
43804;BME280;29430;52.924;-2.388;2024-03-07T03:30:47;99872.31;;;4.05;100.00
43804;BME280;29430;52.924;-2.388;2024-03-07T03:35:40;99867.59;;;4.07;100.00
43804;BME280;29430;52.924;-2.388;2024-03-07T03:40:32;99865.63;;;4.09;100.00
43804;BME280;29430;52.924;-2.388;2024-03-07T03:45:24;99864.09;;;4.07;100.00
43804;BME280;29430;52.924;-2.388;2024-03-07T03:50:17;99863.44;;;4.05;100.00
43804;BME280;29430;52.924;-2.388;2024-03-07T03:55:10;99866.63;;;4.00;100.00
43804;BME280;29430;52.924;-2.388;2024-03-07T04:00:04;99863.44;;;3.97;100.00
43804;BME280;29430;52.924;-2.388;2024-03-07T04:05:04;99863.63;;;3.95;100.00
43804;BME280;29430;52.924;-2.388;2024-03-07T04:09:55;99869.16;;;3.93;100.00
43804;BME280;29430;52.924;-2.388;2024-03-07T04:14:47;99866.47;;;3.93;100.00
43804;BME280;29430;52.924;-2.388;2024-03-07T04:19:42;99867.31;;;3.94;100.00
43804;BME280;29430;52.924;-2.388;2024-03-07T04:24:35;99874.69;;;3.92;100.00
43804;BME280;29430;52.924;-2.388;2024-03-07T04:29:27;99869.84;;;3.87;100.00
43804;BME280;29430;52.924;-2.388;2024-03-07T04:34:18;99873.53;;;3.86;100.00
43804;BME280;29430;52.924;-2.388;2024-03-07T04:39:10;99866.50;;;3.85;100.00
43804;BME280;29430;52.924;-2.388;2024-03-07T04:44:20;99876.06;;;3.88;100.00
43804;BME280;29430;52.924;-2.388;2024-03-07T04:49:15;99867.50;;;3.84;100.00
43804;BME280;29430;52.924;-2.388;2024-03-07T04:54:07;99869.53;;;3.82;100.00
43804;BME280;29430;52.924;-2.388;2024-03-07T04:58:59;99873.19;;;3.81;100.00
43804;BME280;29430;52.924;-2.388;2024-03-07T05:03:50;99875.38;;;3.78;100.00
43804;BME280;29430;52.924;-2.388;2024-03-07T05:08:44;99883.13;;;3.72;100.00
43804;BME280;29430;52.924;-2.388;2024-03-07T05:13:39;99889.66;;;3.70;100.00
43804;BME280;29430;52.924;-2.388;2024-03-07T05:18:33;99882.94;;;3.66;100.00
43804;BME280;29430;52.924;-2.388;2024-03-07T05:23:25;99880.94;;;3.59;100.00
43804;BME280;29430;52.924;-2.388;2024-03-07T05:28:17;99887.31;;;3.58;100.00
43804;BME280;29430;52.924;-2.388;2024-03-07T05:33:08;99892.84;;;3.57;100.00
43804;BME280;29430;52.924;-2.388;2024-03-07T05:38:00;99888.31;;;3.49;100.00
43804;BME280;29430;52.924;-2.388;2024-03-07T05:42:56;99908.75;;;3.50;100.00
43804;BME280;29430;52.924;-2.388;2024-03-07T05:47:48;99907.44;;;3.46;100.00
43804;BME280;29430;52.924;-2.388;2024-03-07T05:52:41;99894.00;;;3.38;100.00
43804;BME280;29430;52.924;-2.388;2024-03-07T05:57:32;99901.22;;;3.37;100.00
43804;BME280;29430;52.924;-2.388;2024-03-07T06:02:24;99900.38;;;3.37;100.00
43804;BME280;29430;52.924;-2.388;2024-03-07T06:07:16;99903.22;;;3.35;100.00
43804;BME280;29430;52.924;-2.388;2024-03-07T06:12:07;99896.34;;;3.33;100.00
43804;BME280;29430;52.924;-2.388;2024-03-07T06:17:13;99909.09;;;3.31;100.00
43804;BME280;29430;52.924;-2.388;2024-03-07T06:22:05;99899.84;;;3.33;100.00
43804;BME280;29430;52.924;-2.388;2024-03-07T06:27:00;99896.50;;;3.31;100.00
43804;BME280;29430;52.924;-2.388;2024-03-07T06:31:55;99902.72;;;3.32;100.00
43804;BME280;29430;52.924;-2.388;2024-03-07T06:36:47;99901.88;;;3.31;100.00
43804;BME280;29430;52.924;-2.388;2024-03-07T06:41:39;99908.44;;;3.37;100.00
43804;BME280;29430;52.924;-2.388;2024-03-07T06:46:31;99916.16;;;3.40;100.00
43804;BME280;29430;52.924;-2.388;2024-03-07T06:51:23;99927.69;;;3.40;100.00
43804;BME280;29430;52.924;-2.388;2024-03-07T06:56:17;99908.09;;;3.40;100.00
43804;BME280;29430;52.924;-2.388;2024-03-07T07:01:10;99914.63;;;3.37;100.00
43804;BME280;29430;52.924;-2.388;2024-03-07T07:06:03;99907.59;;;3.45;100.00
43804;BME280;29430;52.924;-2.388;2024-03-07T07:10:58;99896.72;;;3.46;100.00
43804;BME280;29430;52.924;-2.388;2024-03-07T07:15:50;99907.09;;;3.49;100.00
43804;BME280;29430;52.924;-2.388;2024-03-07T07:20:42;99911.09;;;3.53;100.00
43804;BME280;29430;52.924;-2.388;2024-03-07T07:25:34;99911.28;;;3.60;100.00
43804;BME280;29430;52.924;-2.388;2024-03-07T07:30:26;99910.44;;;3.59;100.00
43804;BME280;29430;52.924;-2.388;2024-03-07T07:35:21;99912.78;;;3.63;100.00
43804;BME280;29430;52.924;-2.388;2024-03-07T07:40:14;99905.25;;;3.66;100.00
43804;BME280;29430;52.924;-2.388;2024-03-07T07:45:10;99909.25;;;3.70;100.00
43804;BME280;29430;52.924;-2.388;2024-03-07T07:50:03;99904.59;;;3.72;100.00
43804;BME280;29430;52.924;-2.388;2024-03-07T07:54:58;99916.78;;;3.75;100.00
43804;BME280;29430;52.924;-2.388;2024-03-07T07:59:49;99910.09;;;3.79;100.00
43804;BME280;29430;52.924;-2.388;2024-03-07T08:04:41;99907.25;;;3.81;100.00
43804;BME280;29430;52.924;-2.388;2024-03-07T08:09:33;99902.19;;;3.86;100.00
43804;BME280;29430;52.924;-2.388;2024-03-07T08:14:25;99899.00;;;3.90;100.00
43804;BME280;29430;52.924;-2.388;2024-03-07T08:19:20;99898.66;;;3.93;100.00
43804;BME280;29430;52.924;-2.388;2024-03-07T08:24:11;99894.66;;;3.98;100.00
43804;BME280;29430;52.924;-2.388;2024-03-07T08:29:03;99902.34;;;4.01;100.00
43804;BME280;29430;52.924;-2.388;2024-03-07T08:33:56;99892.28;;;4.03;100.00
43804;BME280;29430;52.924;-2.388;2024-03-07T08:38:48;99886.41;;;4.07;100.00
43804;BME280;29430;52.924;-2.388;2024-03-07T08:43:40;99885.22;;;4.10;100.00
43804;BME280;29430;52.924;-2.388;2024-03-07T08:48:31;99881.03;;;4.16;100.00
43804;BME280;29430;52.924;-2.388;2024-03-07T08:53:23;99882.50;;;4.18;100.00
43804;BME280;29430;52.924;-2.388;2024-03-07T08:58:15;99886.19;;;4.25;100.00
43804;BME280;29430;52.924;-2.388;2024-03-07T09:03:07;99886.84;;;4.27;100.00
43804;BME280;29430;52.924;-2.388;2024-03-07T09:08:04;99887.53;;;4.29;100.00
43804;BME280;29430;52.924;-2.388;2024-03-07T09:12:56;99884.81;;;4.38;100.00
43804;BME280;29430;52.924;-2.388;2024-03-07T09:17:49;99879.22;;;4.47;100.00
43804;BME280;29430;52.924;-2.388;2024-03-07T09:22:41;99879.38;;;4.54;100.00
43804;BME280;29430;52.924;-2.388;2024-03-07T09:27:33;99874.97;;;4.61;100.00
43804;BME280;29430;52.924;-2.388;2024-03-07T09:32:25;99869.75;;;4.68;100.00
43804;BME280;29430;52.924;-2.388;2024-03-07T09:37:19;99877.09;;;4.74;100.00
43804;BME280;29430;52.924;-2.388;2024-03-07T09:42:16;99877.41;;;4.79;100.00
43804;BME280;29430;52.924;-2.388;2024-03-07T09:47:08;99869.34;;;4.79;100.00
43804;BME280;29430;52.924;-2.388;2024-03-07T09:52:11;99879.75;;;4.82;100.00
43804;BME280;29430;52.924;-2.388;2024-03-07T09:57:06;99880.38;;;4.84;100.00
43804;BME280;29430;52.924;-2.388;2024-03-07T10:01:59;99878.56;;;4.85;100.00
43804;BME280;29430;52.924;-2.388;2024-03-07T10:06:52;99869.78;;;4.91;100.00
43804;BME280;29430;52.924;-2.388;2024-03-07T10:11:44;99869.78;;;4.91;100.00
43804;BME280;29430;52.924;-2.388;2024-03-07T10:16:39;99875.28;;;4.98;100.00
43804;BME280;29430;52.924;-2.388;2024-03-07T10:21:33;99885.50;;;5.02;100.00
43804;BME280;29430;52.924;-2.388;2024-03-07T10:26:26;99870.72;;;4.98;100.00
43804;BME280;29430;52.924;-2.388;2024-03-07T10:31:30;99865.00;;;5.01;100.00
43804;BME280;29430;52.924;-2.388;2024-03-07T10:36:22;99848.88;;;5.01;100.00
43804;BME280;29430;52.924;-2.388;2024-03-07T10:41:13;99855.59;;;5.06;100.00
43804;BME280;29430;52.924;-2.388;2024-03-07T10:46:10;99851.22;;;5.05;100.00
43804;BME280;29430;52.924;-2.388;2024-03-07T10:56:33;99867.69;;;5.01;100.00
43804;BME280;29430;52.924;-2.388;2024-03-07T11:01:32;99870.72;;;4.98;100.00
43804;BME280;29430;52.924;-2.388;2024-03-07T11:06:26;99860.53;;;4.94;100.00
43804;BME280;29430;52.924;-2.388;2024-03-07T11:11:18;99867.09;;;4.91;100.00
43804;BME280;29430;52.924;-2.388;2024-03-07T11:16:11;99849.47;;;4.89;100.00
43804;BME280;29430;52.924;-2.388;2024-03-07T11:21:04;99840.59;;;4.88;100.00
43804;BME280;29430;52.924;-2.388;2024-03-07T11:26:04;99842.25;;;4.89;100.00
43804;BME280;29430;52.924;-2.388;2024-03-07T11:36:42;99840.59;;;4.88;100.00
43804;BME280;29430;52.924;-2.388;2024-03-07T11:41:34;99836.03;;;4.89;100.00
43804;BME280;29430;52.924;-2.388;2024-03-07T11:46:26;99822.25;;;4.92;100.00
43804;BME280;29430;52.924;-2.388;2024-03-07T11:51:21;99823.38;;;4.97;100.00
43804;BME280;29430;52.924;-2.388;2024-03-07T11:56:16;99811.91;;;5.04;100.00
43804;BME280;29430;52.924;-2.388;2024-03-07T12:01:09;99812.22;;;5.09;100.00
43804;BME280;29430;52.924;-2.388;2024-03-07T12:06:02;99808.69;;;5.08;100.00
43804;BME280;29430;52.924;-2.388;2024-03-07T12:10:54;99804.50;;;5.06;100.00
43804;BME280;29430;52.924;-2.388;2024-03-07T12:15:49;99798.31;;;5.05;100.00
43804;BME280;29430;52.924;-2.388;2024-03-07T12:20:44;99791.72;;;5.08;100.00
43804;BME280;29430;52.924;-2.388;2024-03-07T12:25:46;99772.25;;;5.06;100.00
43804;BME280;29430;52.924;-2.388;2024-03-07T12:30:54;99789.03;;;5.08;100.00
43804;BME280;29430;52.924;-2.388;2024-03-07T12:35:47;99771.25;;;5.07;100.00
43804;BME280;29430;52.924;-2.388;2024-03-07T12:40:42;99764.00;;;5.07;100.00
43804;BME280;29430;52.924;-2.388;2024-03-07T12:45:37;99767.16;;;5.11;100.00
43804;BME280;29430;52.924;-2.388;2024-03-07T12:50:29;99746.69;;;5.10;100.00
43804;BME280;29430;52.924;-2.388;2024-03-07T12:55:21;99748.16;;;5.12;100.00
43804;BME280;29430;52.924;-2.388;2024-03-07T13:00:13;99753.16;;;5.15;100.00
43804;BME280;29430;52.924;-2.388;2024-03-07T13:05:11;99742.22;;;5.17;100.00
43804;BME280;29430;52.924;-2.388;2024-03-07T13:10:11;99757.00;;;5.21;100.00
43804;BME280;29430;52.924;-2.388;2024-03-07T13:15:06;99756.81;;;5.23;100.00
43804;BME280;29430;52.924;-2.388;2024-03-07T13:20:02;99737.81;;;5.24;100.00
43804;BME280;29430;52.924;-2.388;2024-03-07T13:24:54;99746.88;;;5.23;100.00
43804;BME280;29430;52.924;-2.388;2024-03-07T13:29:45;99744.38;;;5.22;100.00
43804;BME280;29430;52.924;-2.388;2024-03-07T13:34:37;99724.53;;;5.23;100.00
43804;BME280;29430;52.924;-2.388;2024-03-07T13:39:29;99711.00;;;5.31;100.00
43804;BME280;29430;52.924;-2.388;2024-03-07T13:44:20;99724.47;;;5.46;100.00
43804;BME280;29430;52.924;-2.388;2024-03-07T13:49:14;99705.38;;;5.55;100.00
43804;BME280;29430;52.924;-2.388;2024-03-07T13:54:05;99691.63;;;5.65;100.00
43804;BME280;29430;52.924;-2.388;2024-03-07T13:59:47;99691.44;;;5.82;100.00
43804;BME280;29430;52.924;-2.388;2024-03-07T14:25:48;99644.44;;;5.99;100.00
43804;BME280;29430;52.924;-2.388;2024-03-07T14:30:44;99634.16;;;6.03;100.00
43804;BME280;29430;52.924;-2.388;2024-03-07T14:36:02;99629.78;;;6.02;100.00
43804;BME280;29430;52.924;-2.388;2024-03-07T14:40:57;99632.72;;;6.07;100.00
43804;BME280;29430;52.924;-2.388;2024-03-07T14:45:49;99626.78;;;6.12;100.00
43804;BME280;29430;52.924;-2.388;2024-03-07T14:50:42;99626.59;;;6.13;100.00
43804;BME280;29430;52.924;-2.388;2024-03-07T14:55:39;99617.75;;;6.19;100.00
43804;BME280;29430;52.924;-2.388;2024-03-07T15:00:32;99602.50;;;6.26;100.00
43804;BME280;29430;52.924;-2.388;2024-03-07T15:05:32;99593.97;;;6.44;100.00
43804;BME280;29430;52.924;-2.388;2024-03-07T15:10:37;99587.69;;;6.66;100.00
43804;BME280;29430;52.924;-2.388;2024-03-07T15:15:30;99574.13;;;6.80;100.00
43804;BME280;29430;52.924;-2.388;2024-03-07T15:20:25;99567.97;;;6.93;100.00
43804;BME280;29430;52.924;-2.388;2024-03-07T15:25:21;99559.97;;;7.07;100.00
43804;BME280;29430;52.924;-2.388;2024-03-07T15:30:17;99551.72;;;7.15;100.00
43804;BME280;29430;52.924;-2.388;2024-03-07T15:35:10;99550.28;;;7.12;100.00
43804;BME280;29430;52.924;-2.388;2024-03-07T15:40:09;99545.88;;;7.05;100.00
43804;BME280;29430;52.924;-2.388;2024-03-07T15:45:04;99530.91;;;7.02;100.00
43804;BME280;29430;52.924;-2.388;2024-03-07T15:50:04;99518.25;;;7.03;100.00
43804;BME280;29430;52.924;-2.388;2024-03-07T15:54:56;99513.72;;;7.03;100.00
43804;BME280;29430;52.924;-2.388;2024-03-07T15:59:48;99508.97;;;7.12;100.00
43804;BME280;29430;52.924;-2.388;2024-03-07T16:04:41;99488.66;;;7.16;100.00
43804;BME280;29430;52.924;-2.388;2024-03-07T16:09:33;99495.53;;;7.19;100.00
43804;BME280;29430;52.924;-2.388;2024-03-07T16:14:25;99490.13;;;7.19;100.00
43804;BME280;29430;52.924;-2.388;2024-03-07T16:19:16;99478.69;;;7.16;100.00
43804;BME280;29430;52.924;-2.388;2024-03-07T16:24:12;99472.47;;;7.16;100.00
43804;BME280;29430;52.924;-2.388;2024-03-07T16:29:04;99479.91;;;7.07;100.00
43804;BME280;29430;52.924;-2.388;2024-03-07T16:33:58;99469.06;;;6.94;100.00
43804;BME280;29430;52.924;-2.388;2024-03-07T16:38:50;99470.66;;;6.81;100.00
43804;BME280;29430;52.924;-2.388;2024-03-07T16:43:41;99455.88;;;6.71;100.00
43804;BME280;29430;52.924;-2.388;2024-03-07T16:48:33;99452.72;;;6.60;100.00
43804;BME280;29430;52.924;-2.388;2024-03-07T16:53:25;99459.78;;;6.61;100.00
43804;BME280;29430;52.924;-2.388;2024-03-07T16:58:17;99447.31;;;6.60;100.00
43804;BME280;29430;52.924;-2.388;2024-03-07T17:03:09;99443.81;;;6.60;100.00
43804;BME280;29430;52.924;-2.388;2024-03-07T17:08:03;99449.19;;;6.60;100.00
43804;BME280;29430;52.924;-2.388;2024-03-07T17:12:58;99447.09;;;6.55;100.00
43804;BME280;29430;52.924;-2.388;2024-03-07T17:17:52;99444.81;;;6.52;100.00
43804;BME280;29430;52.924;-2.388;2024-03-07T17:22:44;99460.09;;;6.45;100.00
43804;BME280;29430;52.924;-2.388;2024-03-07T17:27:36;99442.00;;;6.39;100.00
43804;BME280;29430;52.924;-2.388;2024-03-07T17:32:28;99428.72;;;6.31;100.00
43804;BME280;29430;52.924;-2.388;2024-03-07T17:37:23;99433.41;;;6.22;100.00
43804;BME280;29430;52.924;-2.388;2024-03-07T17:42:15;99426.50;;;6.13;100.00
43804;BME280;29430;52.924;-2.388;2024-03-07T17:47:07;99431.00;;;6.05;100.00
43804;BME280;29430;52.924;-2.388;2024-03-07T17:52:02;99428.06;;;6.00;100.00
43804;BME280;29430;52.924;-2.388;2024-03-07T17:56:53;99434.81;;;5.96;100.00
43804;BME280;29430;52.924;-2.388;2024-03-07T18:01:45;99424.44;;;5.93;100.00
43804;BME280;29430;52.924;-2.388;2024-03-07T18:06:37;99426.50;;;5.91;100.00
43804;BME280;29430;52.924;-2.388;2024-03-07T18:11:28;99442.63;;;5.84;100.00
43804;BME280;29430;52.924;-2.388;2024-03-07T18:16:22;99414.41;;;5.80;100.00
43804;BME280;29430;52.924;-2.388;2024-03-07T18:21:14;99432.63;;;5.78;100.00
43804;BME280;29430;52.924;-2.388;2024-03-07T18:26:05;99425.13;;;5.73;100.00
43804;BME280;29430;52.924;-2.388;2024-03-07T18:30:57;99419.94;;;5.72;100.00
43804;BME280;29430;52.924;-2.388;2024-03-07T18:35:54;99408.47;;;5.63;100.00
43804;BME280;29430;52.924;-2.388;2024-03-07T18:40:47;99396.41;;;5.59;100.00
43804;BME280;29430;52.924;-2.388;2024-03-07T18:45:40;99401.38;;;5.55;100.00
43804;BME280;29430;52.924;-2.388;2024-03-07T18:50:37;99406.31;;;5.52;100.00
43804;BME280;29430;52.924;-2.388;2024-03-07T18:55:38;99411.22;;;5.48;100.00
43804;BME280;29430;52.924;-2.388;2024-03-07T19:00:31;99387.41;;;5.45;100.00
43804;BME280;29430;52.924;-2.388;2024-03-07T19:05:24;99387.59;;;5.44;100.00
43804;BME280;29430;52.924;-2.388;2024-03-07T19:10:17;99386.13;;;5.41;100.00
43804;BME280;29430;52.924;-2.388;2024-03-07T19:15:10;99389.84;;;5.40;100.00
43804;BME280;29430;52.924;-2.388;2024-03-07T19:20:01;99379.47;;;5.37;100.00
43804;BME280;29430;52.924;-2.388;2024-03-07T19:25:08;99373.84;;;5.32;100.00
43804;BME280;29430;52.924;-2.388;2024-03-07T19:29:59;99382.50;;;5.27;100.00
43804;BME280;29430;52.924;-2.388;2024-03-07T19:34:53;99382.69;;;5.26;100.00
43804;BME280;29430;52.924;-2.388;2024-03-07T19:39:46;99384.94;;;5.22;100.00
43804;BME280;29430;52.924;-2.388;2024-03-07T19:44:40;99387.22;;;5.25;100.00
43804;BME280;29430;52.924;-2.388;2024-03-07T19:49:35;99385.38;;;5.26;100.00
43804;BME280;29430;52.924;-2.388;2024-03-07T19:54:27;99384.94;;;5.22;100.00
43804;BME280;29430;52.924;-2.388;2024-03-07T19:59:19;99381.56;;;5.20;100.00
43804;BME280;29430;52.924;-2.388;2024-03-07T20:04:11;99386.97;;;5.20;100.00
43804;BME280;29430;52.924;-2.388;2024-03-07T20:09:05;99379.28;;;5.17;100.00
43804;BME280;29430;52.924;-2.388;2024-03-07T20:13:57;99381.13;;;5.16;100.00
43804;BME280;29430;52.924;-2.388;2024-03-07T20:18:50;99381.13;;;5.16;100.00
43804;BME280;29430;52.924;-2.388;2024-03-07T20:23:43;99380.69;;;5.13;100.00
43804;BME280;29430;52.924;-2.388;2024-03-07T20:28:34;99363.09;;;5.10;100.00
43804;BME280;29430;52.924;-2.388;2024-03-07T20:33:26;99358.09;;;5.07;100.00
43804;BME280;29430;52.924;-2.388;2024-03-07T20:38:19;99365.13;;;5.08;100.00
43804;BME280;29430;52.924;-2.388;2024-03-07T20:43:13;99370.22;;;5.03;100.00
43804;BME280;29430;52.924;-2.388;2024-03-07T20:48:06;99375.81;;;5.01;100.00
43804;BME280;29430;52.924;-2.388;2024-03-07T20:53:04;99380.53;;;4.99;100.00
43804;BME280;29430;52.924;-2.388;2024-03-07T20:57:56;99382.97;;;4.94;100.00
43804;BME280;29430;52.924;-2.388;2024-03-07T21:02:51;99377.97;;;4.91;100.00
43804;BME280;29430;52.924;-2.388;2024-03-07T21:07:43;99370.94;;;4.90;100.00
43804;BME280;29430;52.924;-2.388;2024-03-07T21:12:37;99354.56;;;4.85;100.00
43804;BME280;29430;52.924;-2.388;2024-03-07T21:17:31;99353.06;;;4.82;100.00
43804;BME280;29430;52.924;-2.388;2024-03-07T21:22:23;99355.75;;;4.82;100.00
43804;BME280;29430;52.924;-2.388;2024-03-07T21:27:15;99346.59;;;4.77;100.00
43804;BME280;29430;52.924;-2.388;2024-03-07T21:32:06;99345.94;;;4.75;100.00
43804;BME280;29430;52.924;-2.388;2024-03-07T21:37:02;99343.66;;;4.72;100.00
43804;BME280;29430;52.924;-2.388;2024-03-07T21:41:56;99353.75;;;4.70;100.00
43804;BME280;29430;52.924;-2.388;2024-03-07T21:46:48;99357.25;;;4.70;100.00
43804;BME280;29430;52.924;-2.388;2024-03-07T21:51:45;99345.03;;;4.68;100.00
43804;BME280;29430;52.924;-2.388;2024-03-07T21:56:38;99330.78;;;4.67;100.00
43804;BME280;29430;52.924;-2.388;2024-03-07T22:01:36;99336.34;;;4.65;100.00
43804;BME280;29430;52.924;-2.388;2024-03-07T22:06:29;99335.91;;;4.62;100.00
43804;BME280;29430;52.924;-2.388;2024-03-07T22:11:21;99300.69;;;4.57;100.00
43804;BME280;29430;52.924;-2.388;2024-03-07T22:16:13;99294.13;;;4.59;100.00
43804;BME280;29430;52.924;-2.388;2024-03-07T22:21:06;99291.63;;;4.58;100.00
43804;BME280;29430;52.924;-2.388;2024-03-07T22:25:59;99291.19;;;4.54;100.00
43804;BME280;29430;52.924;-2.388;2024-03-07T22:30:52;99271.09;;;4.50;100.00
43804;BME280;29430;52.924;-2.388;2024-03-07T22:35:44;99270.91;;;4.52;100.00
43804;BME280;29430;52.924;-2.388;2024-03-07T22:40:36;99273.78;;;4.50;100.00
43804;BME280;29430;52.924;-2.388;2024-03-07T22:45:28;99259.44;;;4.43;100.00
43804;BME280;29430;52.924;-2.388;2024-03-07T22:50:21;99247.41;;;4.39;100.00
43804;BME280;29430;52.924;-2.388;2024-03-07T22:55:21;99271.78;;;4.37;100.00
43804;BME280;29430;52.924;-2.388;2024-03-07T23:00:14;99253.53;;;4.33;100.00
43804;BME280;29430;52.924;-2.388;2024-03-07T23:05:32;99243.56;;;4.26;100.00
43804;BME280;29430;52.924;-2.388;2024-03-07T23:10:24;99248.94;;;4.26;100.00
43804;BME280;29430;52.924;-2.388;2024-03-07T23:15:16;99240.97;;;4.18;100.00
43804;BME280;29430;52.924;-2.388;2024-03-07T23:20:08;99225.03;;;4.17;100.00
43804;BME280;29430;52.924;-2.388;2024-03-07T23:25:05;99244.22;;;4.13;100.00
43804;BME280;29430;52.924;-2.388;2024-03-07T23:29:57;99245.44;;;4.11;100.00
43804;BME280;29430;52.924;-2.388;2024-03-07T23:34:50;99234.03;;;4.09;100.00
43804;BME280;29430;52.924;-2.388;2024-03-07T23:39:41;99216.66;;;4.05;100.00
43804;BME280;29430;52.924;-2.388;2024-03-07T23:44:33;99214.38;;;4.02;99.31
43804;BME280;29430;52.924;-2.388;2024-03-07T23:49:25;99206.88;;;3.97;99.09
43804;BME280;29430;52.924;-2.388;2024-03-07T23:54:16;99180.78;;;3.91;98.79
43804;BME280;29430;52.924;-2.388;2024-03-07T23:59:11;99185.69;;;3.87;99.17
